sensor_id;sensor_type;location;lat;lon;timestamp;pressure;altitude;pressure_sealevel;temperature;humidity
9855;BME280;4966;48.112;9.282;2023-03-14T00:02:21;93405.31;;;9.11;100.00
9855;BME280;4966;48.112;9.282;2023-03-14T00:04:46;93405.47;;;8.99;100.00
9855;BME280;4966;48.112;9.282;2023-03-14T00:07:12;93408.41;;;8.90;100.00
9855;BME280;4966;48.112;9.282;2023-03-14T00:09:38;93401.56;;;8.97;100.00
9855;BME280;4966;48.112;9.282;2023-03-14T00:12:03;93381.38;;;8.94;100.00
9855;BME280;4966;48.112;9.282;2023-03-14T00:14:31;93364.56;;;8.65;100.00
9855;BME280;4966;48.112;9.282;2023-03-14T00:16:56;93341.34;;;8.68;100.00
9855;BME280;4966;48.112;9.282;2023-03-14T00:19:21;93337.84;;;8.87;100.00
9855;BME280;4966;48.112;9.282;2023-03-14T00:21:47;93347.22;;;8.93;100.00
9855;BME280;4966;48.112;9.282;2023-03-14T00:24:12;93345.69;;;8.92;100.00
9855;BME280;4966;48.112;9.282;2023-03-14T00:26:38;93329.31;;;9.08;100.00
9855;BME280;4966;48.112;9.282;2023-03-14T00:29:03;93284.59;;;8.98;100.00
9855;BME280;4966;48.112;9.282;2023-03-14T00:31:28;93236.22;;;8.81;100.00
9855;BME280;4966;48.112;9.282;2023-03-14T00:33:54;93265.16;;;8.96;100.00
9855;BME280;4966;48.112;9.282;2023-03-14T00:36:20;93297.31;;;9.17;100.00
9855;BME280;4966;48.112;9.282;2023-03-14T00:38:48;93298.84;;;8.72;100.00
9855;BME280;4966;48.112;9.282;2023-03-14T00:41:16;93292.09;;;8.43;100.00
9855;BME280;4966;48.112;9.282;2023-03-14T00:43:42;93300.66;;;8.64;100.00
9855;BME280;4966;48.112;9.282;2023-03-14T00:46:08;93304.94;;;8.46;100.00
9855;BME280;4966;48.112;9.282;2023-03-14T00:48:34;93293.59;;;8.83;100.00
9855;BME280;4966;48.112;9.282;2023-03-14T00:51:00;93279.75;;;8.65;100.00
9855;BME280;4966;48.112;9.282;2023-03-14T00:53:25;93276.47;;;8.79;100.00
9855;BME280;4966;48.112;9.282;2023-03-14T00:55:50;93278.41;;;8.55;100.00
9855;BME280;4966;48.112;9.282;2023-03-14T00:58:17;93295.22;;;8.64;100.00
9855;BME280;4966;48.112;9.282;2023-03-14T01:00:43;93267.38;;;8.67;100.00
9855;BME280;4966;48.112;9.282;2023-03-14T01:03:10;93274.41;;;8.49;100.00
9855;BME280;4966;48.112;9.282;2023-03-14T01:05:36;93270.22;;;8.75;100.00
9855;BME280;4966;48.112;9.282;2023-03-14T01:08:01;93250.63;;;8.85;100.00
9855;BME280;4966;48.112;9.282;2023-03-14T01:10:27;93239.91;;;8.92;100.00
9855;BME280;4966;48.112;9.282;2023-03-14T01:12:52;93246.69;;;8.59;100.00
9855;BME280;4966;48.112;9.282;2023-03-14T01:15:18;93243.75;;;8.68;100.00
9855;BME280;4966;48.112;9.282;2023-03-14T01:17:44;93234.91;;;8.71;100.00
9855;BME280;4966;48.112;9.282;2023-03-14T01:20:12;93236.28;;;8.61;100.00
9855;BME280;4966;48.112;9.282;2023-03-14T01:22:38;93228.59;;;8.86;100.00
9855;BME280;4966;48.112;9.282;2023-03-14T01:25:13;93234.44;;;8.65;100.00
9855;BME280;4966;48.112;9.282;2023-03-14T01:27:39;93233.22;;;8.63;100.00
9855;BME280;4966;48.112;9.282;2023-03-14T01:30:05;93244.28;;;9.00;100.00
9855;BME280;4966;48.112;9.282;2023-03-14T01:32:30;93248.78;;;8.89;100.00
9855;BME280;4966;48.112;9.282;2023-03-14T01:34:56;93236.66;;;8.83;100.00
9855;BME280;4966;48.112;9.282;2023-03-14T01:37:21;93238.94;;;8.81;100.00
9855;BME280;4966;48.112;9.282;2023-03-14T01:39:47;93229.72;;;8.85;100.00
9855;BME280;4966;48.112;9.282;2023-03-14T01:42:13;93240.03;;;8.53;100.00
9855;BME280;4966;48.112;9.282;2023-03-14T01:44:59;93216.00;;;8.75;100.00
9855;BME280;4966;48.112;9.282;2023-03-14T01:47:25;93225.38;;;8.81;100.00
9855;BME280;4966;48.112;9.282;2023-03-14T01:50:07;93224.75;;;8.64;100.00
9855;BME280;4966;48.112;9.282;2023-03-14T01:52:41;93220.81;;;8.85;100.00
9855;BME280;4966;48.112;9.282;2023-03-14T01:55:14;93223.94;;;8.87;100.00
9855;BME280;4966;48.112;9.282;2023-03-14T01:58:03;93214.06;;;8.75;100.00
9855;BME280;4966;48.112;9.282;2023-03-14T02:00:29;93198.91;;;8.97;100.00
9855;BME280;4966;48.112;9.282;2023-03-14T02:03:01;93200.16;;;8.77;100.00
9855;BME280;4966;48.112;9.282;2023-03-14T02:05:32;93199.72;;;8.75;100.00
9855;BME280;4966;48.112;9.282;2023-03-14T02:07:59;93197.88;;;8.56;100.00
9855;BME280;4966;48.112;9.282;2023-03-14T02:10:28;93201.59;;;8.28;100.00
9855;BME280;4966;48.112;9.282;2023-03-14T02:12:56;93186.16;;;8.51;100.00
9855;BME280;4966;48.112;9.282;2023-03-14T02:15:24;93170.78;;;8.36;100.00
9855;BME280;4966;48.112;9.282;2023-03-14T02:17:50;93161.03;;;8.31;100.00
9855;BME280;4966;48.112;9.282;2023-03-14T02:20:40;93153.31;;;8.53;100.00
9855;BME280;4966;48.112;9.282;2023-03-14T02:23:10;93155.69;;;8.58;100.00
9855;BME280;4966;48.112;9.282;2023-03-14T02:25:56;93168.94;;;8.40;100.00
9855;BME280;4966;48.112;9.282;2023-03-14T02:28:25;93165.44;;;8.40;100.00
9855;BME280;4966;48.112;9.282;2023-03-14T02:30:51;93164.03;;;8.46;100.00
9855;BME280;4966;48.112;9.282;2023-03-14T02:33:18;93156.81;;;8.34;100.00
9855;BME280;4966;48.112;9.282;2023-03-14T02:38:31;93155.03;;;8.65;100.00
9855;BME280;4966;48.112;9.282;2023-03-14T02:40:58;93144.44;;;8.56;100.00
9855;BME280;4966;48.112;9.282;2023-03-14T02:43:24;93159.19;;;8.59;100.00
9855;BME280;4966;48.112;9.282;2023-03-14T02:45:51;93158.84;;;8.60;100.00
9855;BME280;4966;48.112;9.282;2023-03-14T02:48:32;93153.22;;;8.49;100.00
9855;BME280;4966;48.112;9.282;2023-03-14T02:51:00;93154.84;;;8.54;100.00
9855;BME280;4966;48.112;9.282;2023-03-14T02:53:31;93140.59;;;8.38;100.00
9855;BME280;4966;48.112;9.282;2023-03-14T02:55:58;93136.44;;;8.40;100.00
9855;BME280;4966;48.112;9.282;2023-03-14T02:58:23;93135.44;;;8.29;100.00
9855;BME280;4966;48.112;9.282;2023-03-14T03:00:49;93119.81;;;8.42;100.00
9855;BME280;4966;48.112;9.282;2023-03-14T03:03:15;93118.59;;;8.39;100.00
9855;BME280;4966;48.112;9.282;2023-03-14T03:05:40;93114.78;;;8.21;100.00
9855;BME280;4966;48.112;9.282;2023-03-14T03:08:06;93111.91;;;8.10;100.00
9855;BME280;4966;48.112;9.282;2023-03-14T03:10:31;93105.69;;;8.32;100.00
9855;BME280;4966;48.112;9.282;2023-03-14T03:12:57;93111.06;;;8.29;100.00
9855;BME280;4966;48.112;9.282;2023-03-14T03:15:22;93106.72;;;8.47;100.00
9855;BME280;4966;48.112;9.282;2023-03-14T03:17:48;93106.63;;;8.40;100.00
9855;BME280;4966;48.112;9.282;2023-03-14T03:20:13;93113.97;;;8.40;100.00
9855;BME280;4966;48.112;9.282;2023-03-14T03:22:39;93110.69;;;8.30;100.00
9855;BME280;4966;48.112;9.282;2023-03-14T03:25:05;93103.63;;;8.26;100.00
9855;BME280;4966;48.112;9.282;2023-03-14T03:27:32;93099.56;;;8.36;100.00
9855;BME280;4966;48.112;9.282;2023-03-14T03:29:58;93090.88;;;8.03;100.00
9855;BME280;4966;48.112;9.282;2023-03-14T03:32:23;93109.53;;;8.08;100.00
9855;BME280;4966;48.112;9.282;2023-03-14T03:34:49;93101.91;;;7.91;100.00
9855;BME280;4966;48.112;9.282;2023-03-14T03:37:14;93094.00;;;7.82;100.00
9855;BME280;4966;48.112;9.282;2023-03-14T03:39:40;93091.28;;;7.82;100.00
9855;BME280;4966;48.112;9.282;2023-03-14T03:42:05;93097.25;;;7.92;100.00
9855;BME280;4966;48.112;9.282;2023-03-14T03:44:30;93093.34;;;7.89;100.00
9855;BME280;4966;48.112;9.282;2023-03-14T03:46:56;93099.25;;;7.95;100.00
9855;BME280;4966;48.112;9.282;2023-03-14T03:49:21;93097.25;;;7.92;100.00
9855;BME280;4966;48.112;9.282;2023-03-14T03:51:46;93097.06;;;7.81;100.00
9855;BME280;4966;48.112;9.282;2023-03-14T03:54:12;93094.25;;;7.97;100.00
9855;BME280;4966;48.112;9.282;2023-03-14T03:56:37;93092.34;;;7.78;100.00
9855;BME280;4966;48.112;9.282;2023-03-14T03:59:03;93098.44;;;7.52;100.00
9855;BME280;4966;48.112;9.282;2023-03-14T04:01:28;93095.19;;;7.62;100.00
9855;BME280;4966;48.112;9.282;2023-03-14T04:03:53;93091.97;;;7.76;100.00
9855;BME280;4966;48.112;9.282;2023-03-14T04:06:19;93093.16;;;7.59;100.00
9855;BME280;4966;48.112;9.282;2023-03-14T04:08:44;93100.09;;;7.76;100.00
9855;BME280;4966;48.112;9.282;2023-03-14T04:11:09;93091.91;;;7.53;100.00
9855;BME280;4966;48.112;9.282;2023-03-14T04:13:35;93090.97;;;7.64;100.00
9855;BME280;4966;48.112;9.282;2023-03-14T04:16:00;93094.13;;;7.47;100.00
9855;BME280;4966;48.112;9.282;2023-03-14T04:18:26;93089.81;;;7.65;100.00
9855;BME280;4966;48.112;9.282;2023-03-14T04:20:52;93094.25;;;7.74;100.00
9855;BME280;4966;48.112;9.282;2023-03-14T04:23:18;93094.13;;;7.89;100.00
9855;BME280;4966;48.112;9.282;2023-03-14T04:25:43;93082.72;;;7.57;100.00
9855;BME280;4966;48.112;9.282;2023-03-14T04:28:09;93080.19;;;7.68;100.00
9855;BME280;4966;48.112;9.282;2023-03-14T04:30:34;93080.88;;;7.61;100.00
9855;BME280;4966;48.112;9.282;2023-03-14T04:33:00;93072.03;;;7.64;100.00
9855;BME280;4966;48.112;9.282;2023-03-14T04:35:25;93064.94;;;7.79;100.00
9855;BME280;4966;48.112;9.282;2023-03-14T04:37:50;93062.66;;;7.81;100.00
9855;BME280;4966;48.112;9.282;2023-03-14T04:40:17;93059.34;;;7.69;100.00
9855;BME280;4966;48.112;9.282;2023-03-14T04:42:43;93055.72;;;7.61;100.00
9855;BME280;4966;48.112;9.282;2023-03-14T04:45:08;93050.06;;;7.70;100.00
9855;BME280;4966;48.112;9.282;2023-03-14T04:47:34;93043.88;;;7.69;100.00
9855;BME280;4966;48.112;9.282;2023-03-14T04:49:59;93052.19;;;7.57;100.00
9855;BME280;4966;48.112;9.282;2023-03-14T04:52:25;93053.59;;;7.51;100.00
9855;BME280;4966;48.112;9.282;2023-03-14T04:54:51;93045.47;;;7.51;100.00
9855;BME280;4966;48.112;9.282;2023-03-14T04:57:16;93036.28;;;7.55;100.00
9855;BME280;4966;48.112;9.282;2023-03-14T04:59:42;93036.06;;;7.44;100.00
9855;BME280;4966;48.112;9.282;2023-03-14T05:02:07;93021.38;;;7.65;100.00
9855;BME280;4966;48.112;9.282;2023-03-14T05:04:33;93023.56;;;7.36;100.00
9855;BME280;4966;48.112;9.282;2023-03-14T05:06:59;93015.72;;;7.51;100.00
9855;BME280;4966;48.112;9.282;2023-03-14T05:09:25;93013.78;;;7.51;100.00
9855;BME280;4966;48.112;9.282;2023-03-14T05:11:50;93009.44;;;7.46;100.00
9855;BME280;4966;48.112;9.282;2023-03-14T05:14:16;93002.00;;;7.40;100.00
9855;BME280;4966;48.112;9.282;2023-03-14T05:16:41;92996.72;;;7.28;100.00
9855;BME280;4966;48.112;9.282;2023-03-14T05:19:06;92992.13;;;7.28;100.00
9855;BME280;4966;48.112;9.282;2023-03-14T05:21:32;92989.25;;;7.40;100.00
9855;BME280;4966;48.112;9.282;2023-03-14T05:23:57;92993.13;;;7.20;100.00
9855;BME280;4966;48.112;9.282;2023-03-14T05:26:23;92980.38;;;7.63;100.00
9855;BME280;4966;48.112;9.282;2023-03-14T05:28:48;92989.84;;;7.53;100.00
9855;BME280;4966;48.112;9.282;2023-03-14T05:31:13;92983.19;;;7.47;99.77
9855;BME280;4966;48.112;9.282;2023-03-14T05:33:39;92976.22;;;7.69;99.34
9855;BME280;4966;48.112;9.282;2023-03-14T05:36:05;92961.38;;;7.59;99.52
9855;BME280;4966;48.112;9.282;2023-03-14T05:38:30;92950.31;;;7.45;99.74
9855;BME280;4966;48.112;9.282;2023-03-14T05:40:56;92955.28;;;7.43;98.96
9855;BME280;4966;48.112;9.282;2023-03-14T05:43:21;92950.28;;;7.68;98.59
9855;BME280;4966;48.112;9.282;2023-03-14T05:45:47;92952.47;;;7.36;100.00
9855;BME280;4966;48.112;9.282;2023-03-14T05:48:12;92953.84;;;7.49;99.21
9855;BME280;4966;48.112;9.282;2023-03-14T05:50:37;92950.97;;;7.38;99.52
9855;BME280;4966;48.112;9.282;2023-03-14T05:53:03;92954.44;;;7.39;99.33
9855;BME280;4966;48.112;9.282;2023-03-14T05:55:29;92940.91;;;7.39;99.41
9855;BME280;4966;48.112;9.282;2023-03-14T05:57:54;92949.03;;;7.39;99.87
9855;BME280;4966;48.112;9.282;2023-03-14T06:00:20;92948.38;;;7.45;100.00
9855;BME280;4966;48.112;9.282;2023-03-14T06:02:46;92941.63;;;7.59;98.93
9855;BME280;4966;48.112;9.282;2023-03-14T06:05:11;92934.13;;;7.72;97.09
9855;BME280;4966;48.112;9.282;2023-03-14T06:07:37;92933.94;;;7.61;98.46
9855;BME280;4966;48.112;9.282;2023-03-14T06:10:03;92940.63;;;7.44;99.23
9855;BME280;4966;48.112;9.282;2023-03-14T06:12:28;92925.47;;;7.39;99.33
9855;BME280;4966;48.112;9.282;2023-03-14T06:14:53;92919.75;;;7.44;98.95
9855;BME280;4966;48.112;9.282;2023-03-14T06:17:19;92912.16;;;7.54;98.34
9855;BME280;4966;48.112;9.282;2023-03-14T06:19:44;92906.06;;;7.57;97.99
9855;BME280;4966;48.112;9.282;2023-03-14T06:22:10;92904.44;;;7.29;99.53
9855;BME280;4966;48.112;9.282;2023-03-14T06:24:35;92905.63;;;7.32;99.22
9855;BME280;4966;48.112;9.282;2023-03-14T06:27:00;92901.34;;;7.08;100.00
9855;BME280;4966;48.112;9.282;2023-03-14T06:29:28;92906.41;;;7.09;100.00
9855;BME280;4966;48.112;9.282;2023-03-14T06:31:53;92907.13;;;7.29;99.19
9855;BME280;4966;48.112;9.282;2023-03-14T06:34:19;92900.69;;;7.37;98.83
9855;BME280;4966;48.112;9.282;2023-03-14T06:36:44;92906.94;;;7.41;98.04
9855;BME280;4966;48.112;9.282;2023-03-14T06:39:09;92915.72;;;7.58;98.19
9855;BME280;4966;48.112;9.282;2023-03-14T06:41:35;92910.84;;;7.44;97.87
9855;BME280;4966;48.112;9.282;2023-03-14T06:44:00;92913.78;;;7.58;97.46
9855;BME280;4966;48.112;9.282;2023-03-14T06:46:25;92908.06;;;7.63;96.79
9855;BME280;4966;48.112;9.282;2023-03-14T06:48:51;92905.09;;;7.45;97.70
9855;BME280;4966;48.112;9.282;2023-03-14T06:51:16;92903.50;;;7.44;97.61
9855;BME280;4966;48.112;9.282;2023-03-14T06:53:41;92907.69;;;7.38;98.26
9855;BME280;4966;48.112;9.282;2023-03-14T06:56:07;92905.88;;;7.46;97.79
9855;BME280;4966;48.112;9.282;2023-03-14T06:58:32;92909.19;;;7.36;98.53
9855;BME280;4966;48.112;9.282;2023-03-14T07:00:58;92908.22;;;7.24;99.04
9855;BME280;4966;48.112;9.282;2023-03-14T07:03:24;92899.34;;;7.47;97.28
9855;BME280;4966;48.112;9.282;2023-03-14T07:05:49;92914.22;;;7.37;97.90
9855;BME280;4966;48.112;9.282;2023-03-14T07:08:15;92913.31;;;7.53;97.30
9855;BME280;4966;48.112;9.282;2023-03-14T07:10:40;92914.59;;;7.36;97.69
9855;BME280;4966;48.112;9.282;2023-03-14T07:13:05;92920.06;;;7.39;97.95
9855;BME280;4966;48.112;9.282;2023-03-14T07:15:31;92917.78;;;7.64;96.23
9855;BME280;4966;48.112;9.282;2023-03-14T07:17:56;92913.63;;;7.48;96.52
9855;BME280;4966;48.112;9.282;2023-03-14T07:20:22;92922.31;;;7.37;97.53
9855;BME280;4966;48.112;9.282;2023-03-14T07:22:48;92921.56;;;7.37;97.51
9855;BME280;4966;48.112;9.282;2023-03-14T07:25:14;92920.78;;;7.36;96.56
9855;BME280;4966;48.112;9.282;2023-03-14T07:27:43;92931.72;;;7.66;95.09
9855;BME280;4966;48.112;9.282;2023-03-14T07:30:08;92929.16;;;8.00;93.23
9855;BME280;4966;48.112;9.282;2023-03-14T07:32:34;92935.84;;;7.83;94.49
9855;BME280;4966;48.112;9.282;2023-03-14T07:34:59;92929.69;;;7.60;95.09
9855;BME280;4966;48.112;9.282;2023-03-14T07:37:25;92937.06;;;7.86;94.49
9855;BME280;4966;48.112;9.282;2023-03-14T07:39:50;92949.03;;;8.12;92.54
9855;BME280;4966;48.112;9.282;2023-03-14T07:42:15;92935.00;;;8.02;93.28
9855;BME280;4966;48.112;9.282;2023-03-14T07:44:41;92937.31;;;8.04;93.47
9855;BME280;4966;48.112;9.282;2023-03-14T07:47:06;92935.63;;;7.69;94.56
9855;BME280;4966;48.112;9.282;2023-03-14T07:49:31;92930.13;;;7.88;94.74
9855;BME280;4966;48.112;9.282;2023-03-14T07:51:57;92940.41;;;8.02;94.35
9855;BME280;4966;48.112;9.282;2023-03-14T07:54:23;92942.91;;;7.88;93.51
9855;BME280;4966;48.112;9.282;2023-03-14T07:56:50;92940.84;;;7.81;94.05
9855;BME280;4966;48.112;9.282;2023-03-14T07:59:15;92945.41;;;8.27;92.60
9855;BME280;4966;48.112;9.282;2023-03-14T08:01:40;92950.81;;;8.27;92.31
9855;BME280;4966;48.112;9.282;2023-03-14T08:04:06;92956.00;;;8.39;92.06
9855;BME280;4966;48.112;9.282;2023-03-14T08:06:31;92954.88;;;8.40;91.50
9855;BME280;4966;48.112;9.282;2023-03-14T08:08:56;92967.63;;;8.13;92.50
9855;BME280;4966;48.112;9.282;2023-03-14T08:11:22;92968.44;;;8.67;91.06
9855;BME280;4966;48.112;9.282;2023-03-14T08:13:47;92962.69;;;8.72;90.40
9855;BME280;4966;48.112;9.282;2023-03-14T08:16:18;92955.31;;;9.03;88.59
9855;BME280;4966;48.112;9.282;2023-03-14T08:18:44;92952.88;;;9.28;87.32
9855;BME280;4966;48.112;9.282;2023-03-14T08:21:10;92959.06;;;9.28;88.14
9855;BME280;4966;48.112;9.282;2023-03-14T08:23:35;92963.13;;;9.08;87.35
9855;BME280;4966;48.112;9.282;2023-03-14T08:26:00;92964.63;;;9.05;86.47
9855;BME280;4966;48.112;9.282;2023-03-14T08:28:26;92958.84;;;9.44;86.04
9855;BME280;4966;48.112;9.282;2023-03-14T08:30:55;92968.66;;;9.19;85.94
9855;BME280;4966;48.112;9.282;2023-03-14T08:33:21;92967.13;;;9.58;85.16
9855;BME280;4966;48.112;9.282;2023-03-14T08:35:46;92969.63;;;9.78;83.98
9855;BME280;4966;48.112;9.282;2023-03-14T08:38:11;92969.81;;;9.99;82.78
9855;BME280;4966;48.112;9.282;2023-03-14T08:40:37;92976.00;;;9.96;80.99
9855;BME280;4966;48.112;9.282;2023-03-14T08:43:02;92983.56;;;9.76;80.78
9855;BME280;4966;48.112;9.282;2023-03-14T08:45:28;92983.81;;;10.01;79.94
9855;BME280;4966;48.112;9.282;2023-03-14T08:47:53;92982.41;;;10.22;81.47
9855;BME280;4966;48.112;9.282;2023-03-14T08:50:18;92983.34;;;10.40;78.06
9855;BME280;4966;48.112;9.282;2023-03-14T08:52:44;92992.72;;;10.47;78.95
9855;BME280;4966;48.112;9.282;2023-03-14T08:55:09;92990.69;;;10.36;77.79
9855;BME280;4966;48.112;9.282;2023-03-14T08:57:35;93001.22;;;10.41;77.98
9855;BME280;4966;48.112;9.282;2023-03-14T09:00:03;92996.88;;;10.33;79.42
9855;BME280;4966;48.112;9.282;2023-03-14T09:02:31;92992.59;;;10.29;78.82
9855;BME280;4966;48.112;9.282;2023-03-14T09:04:56;92983.19;;;10.81;75.80
9855;BME280;4966;48.112;9.282;2023-03-14T09:07:21;92996.75;;;10.71;76.06
9855;BME280;4966;48.112;9.282;2023-03-14T09:09:47;92990.66;;;10.99;74.89
9855;BME280;4966;48.112;9.282;2023-03-14T09:12:12;92994.00;;;10.63;74.42
9855;BME280;4966;48.112;9.282;2023-03-14T09:14:38;92984.75;;;10.20;74.30
9855;BME280;4966;48.112;9.282;2023-03-14T09:17:04;92993.13;;;10.52;75.46
9855;BME280;4966;48.112;9.282;2023-03-14T09:19:29;92998.56;;;10.49;73.89
9855;BME280;4966;48.112;9.282;2023-03-14T09:21:55;92987.88;;;10.26;74.45
9855;BME280;4966;48.112;9.282;2023-03-14T09:24:20;92985.13;;;10.74;73.50
9855;BME280;4966;48.112;9.282;2023-03-14T09:26:46;92995.00;;;11.07;73.06
9855;BME280;4966;48.112;9.282;2023-03-14T09:29:11;92995.69;;;10.93;71.44
9855;BME280;4966;48.112;9.282;2023-03-14T09:31:37;92995.06;;;11.25;71.78
9855;BME280;4966;48.112;9.282;2023-03-14T09:34:02;92995.84;;;11.29;70.54
9855;BME280;4966;48.112;9.282;2023-03-14T09:36:28;92993.47;;;11.17;70.61
9855;BME280;4966;48.112;9.282;2023-03-14T09:38:53;92993.91;;;11.26;69.90
9855;BME280;4966;48.112;9.282;2023-03-14T09:41:28;93000.84;;;11.13;69.96
9855;BME280;4966;48.112;9.282;2023-03-14T09:44:09;93002.44;;;11.21;70.42
9855;BME280;4966;48.112;9.282;2023-03-14T09:46:37;92983.00;;;11.19;68.71
9855;BME280;4966;48.112;9.282;2023-03-14T09:49:10;93000.50;;;11.25;69.85
9855;BME280;4966;48.112;9.282;2023-03-14T09:51:37;92992.81;;;11.45;67.44
9855;BME280;4966;48.112;9.282;2023-03-14T09:54:04;92999.09;;;11.67;67.50
9855;BME280;4966;48.112;9.282;2023-03-14T09:56:32;92984.66;;;11.45;67.59
9855;BME280;4966;48.112;9.282;2023-03-14T09:59:03;92987.44;;;11.74;67.12
9855;BME280;4966;48.112;9.282;2023-03-14T10:01:32;92987.91;;;11.97;65.11
9855;BME280;4966;48.112;9.282;2023-03-14T10:04:14;92988.25;;;12.49;66.63
9855;BME280;4966;48.112;9.282;2023-03-14T10:06:40;92993.28;;;12.76;62.31
9855;BME280;4966;48.112;9.282;2023-03-14T10:09:05;92997.25;;;12.25;62.86
9855;BME280;4966;48.112;9.282;2023-03-14T10:11:31;92988.66;;;12.51;61.45
9855;BME280;4966;48.112;9.282;2023-03-14T10:14:09;92995.69;;;12.34;63.55
9855;BME280;4966;48.112;9.282;2023-03-14T10:16:42;92995.66;;;12.56;62.16
9855;BME280;4966;48.112;9.282;2023-03-14T10:19:13;92996.44;;;12.60;59.70
9855;BME280;4966;48.112;9.282;2023-03-14T10:21:44;93010.88;;;12.61;61.65
9855;BME280;4966;48.112;9.282;2023-03-14T10:24:26;92998.00;;;12.47;61.54
9855;BME280;4966;48.112;9.282;2023-03-14T10:26:54;93001.09;;;12.85;60.68
9855;BME280;4966;48.112;9.282;2023-03-14T10:29:19;92999.16;;;12.74;58.38
9855;BME280;4966;48.112;9.282;2023-03-14T10:31:54;92990.63;;;12.29;59.83
9855;BME280;4966;48.112;9.282;2023-03-14T10:34:32;93004.63;;;12.03;60.08
9855;BME280;4966;48.112;9.282;2023-03-14T10:37:05;92996.84;;;12.37;60.26
9855;BME280;4966;48.112;9.282;2023-03-14T10:42:19;93001.13;;;12.34;62.33
9855;BME280;4966;48.112;9.282;2023-03-14T10:44:48;93007.34;;;12.42;60.33
9855;BME280;4966;48.112;9.282;2023-03-14T10:47:20;93008.94;;;12.43;59.99
9855;BME280;4966;48.112;9.282;2023-03-14T10:49:47;93013.97;;;12.09;59.39
9855;BME280;4966;48.112;9.282;2023-03-14T10:52:18;93015.94;;;12.48;59.62
9855;BME280;4966;48.112;9.282;2023-03-14T10:54:48;93010.06;;;12.78;58.43
9855;BME280;4966;48.112;9.282;2023-03-14T10:57:14;93024.84;;;12.88;58.54
9855;BME280;4966;48.112;9.282;2023-03-14T10:59:41;93034.59;;;12.85;57.29
9855;BME280;4966;48.112;9.282;2023-03-14T11:05:36;93031.81;;;13.14;59.13
9855;BME280;4966;48.112;9.282;2023-03-14T11:10:45;93034.97;;;12.94;58.08
9855;BME280;4966;48.112;9.282;2023-03-14T11:13:15;93039.72;;;12.44;60.64
9855;BME280;4966;48.112;9.282;2023-03-14T11:15:57;93048.25;;;12.17;62.81
9855;BME280;4966;48.112;9.282;2023-03-14T11:21:31;93054.31;;;11.60;67.18
9855;BME280;4966;48.112;9.282;2023-03-14T11:24:23;93063.00;;;11.03;70.27
9855;BME280;4966;48.112;9.282;2023-03-14T11:32:25;93071.00;;;9.89;76.84
9855;BME280;4966;48.112;9.282;2023-03-14T11:34:54;93081.03;;;9.85;78.84
9855;BME280;4966;48.112;9.282;2023-03-14T11:37:32;93084.53;;;9.86;82.00
9855;BME280;4966;48.112;9.282;2023-03-14T11:40:20;93098.28;;;9.66;82.51
9855;BME280;4966;48.112;9.282;2023-03-14T11:43:06;93089.94;;;9.48;86.74
9855;BME280;4966;48.112;9.282;2023-03-14T11:45:37;93102.09;;;9.28;88.07
9855;BME280;4966;48.112;9.282;2023-03-14T11:50:32;93106.50;;;8.56;93.02
9855;BME280;4966;48.112;9.282;2023-03-14T11:55:34;93101.28;;;8.44;92.69
9855;BME280;4966;48.112;9.282;2023-03-14T11:58:05;93109.69;;;8.39;92.64
9855;BME280;4966;48.112;9.282;2023-03-14T12:00:35;93114.09;;;8.47;95.36
9855;BME280;4966;48.112;9.282;2023-03-14T12:05:39;93115.97;;;9.23;92.79
9855;BME280;4966;48.112;9.282;2023-03-14T12:10:39;93115.06;;;9.42;94.69
9855;BME280;4966;48.112;9.282;2023-03-14T12:13:09;93125.41;;;9.32;91.66
9855;BME280;4966;48.112;9.282;2023-03-14T12:15:39;93126.56;;;9.05;94.22
9855;BME280;4966;48.112;9.282;2023-03-14T12:18:18;93124.34;;;8.84;93.13
9855;BME280;4966;48.112;9.282;2023-03-14T12:20:54;93128.56;;;9.08;94.54
9855;BME280;4966;48.112;9.282;2023-03-14T12:23:21;93123.41;;;8.99;95.28
9855;BME280;4966;48.112;9.282;2023-03-14T12:25:46;93137.28;;;8.67;96.50
9855;BME280;4966;48.112;9.282;2023-03-14T12:28:30;93145.91;;;8.50;95.75
9855;BME280;4966;48.112;9.282;2023-03-14T12:30:56;93131.78;;;8.64;96.51
9855;BME280;4966;48.112;9.282;2023-03-14T12:33:27;93138.00;;;8.41;94.46
9855;BME280;4966;48.112;9.282;2023-03-14T12:35:58;93140.78;;;8.25;95.96
9855;BME280;4966;48.112;9.282;2023-03-14T12:41:51;93141.00;;;8.86;95.34
9855;BME280;4966;48.112;9.282;2023-03-14T12:46:54;93144.47;;;8.83;95.19
9855;BME280;4966;48.112;9.282;2023-03-14T12:49:20;93145.63;;;8.36;94.13
9855;BME280;4966;48.112;9.282;2023-03-14T12:51:46;93165.56;;;8.47;93.97
9855;BME280;4966;48.112;9.282;2023-03-14T12:57:09;93185.59;;;8.19;96.36
9855;BME280;4966;48.112;9.282;2023-03-14T12:59:52;93202.06;;;8.10;97.37
9855;BME280;4966;48.112;9.282;2023-03-14T13:02:28;93206.78;;;7.75;100.00
9855;BME280;4966;48.112;9.282;2023-03-14T13:05:04;93218.53;;;8.21;99.00
9855;BME280;4966;48.112;9.282;2023-03-14T13:10:18;93219.25;;;7.99;99.66
9855;BME280;4966;48.112;9.282;2023-03-14T13:13:04;93227.84;;;8.24;99.05
9855;BME280;4966;48.112;9.282;2023-03-14T13:15:42;93247.97;;;8.03;99.27
9855;BME280;4966;48.112;9.282;2023-03-14T13:21:11;93272.75;;;8.05;98.31
9855;BME280;4966;48.112;9.282;2023-03-14T13:23:38;93273.56;;;7.71;93.44
9855;BME280;4966;48.112;9.282;2023-03-14T13:26:09;93296.94;;;7.59;92.97
9855;BME280;4966;48.112;9.282;2023-03-14T13:28:36;93301.75;;;7.85;92.56
9855;BME280;4966;48.112;9.282;2023-03-14T13:31:03;93319.03;;;7.45;92.45
9855;BME280;4966;48.112;9.282;2023-03-14T13:33:29;93322.63;;;7.18;93.98
9855;BME280;4966;48.112;9.282;2023-03-14T13:35:56;93333.50;;;7.69;93.88
9855;BME280;4966;48.112;9.282;2023-03-14T13:38:23;93350.38;;;7.31;93.92
9855;BME280;4966;48.112;9.282;2023-03-14T13:40:51;93356.66;;;7.19;93.52
9855;BME280;4966;48.112;9.282;2023-03-14T13:43:40;93368.75;;;6.93;93.80
9855;BME280;4966;48.112;9.282;2023-03-14T13:46:15;93363.38;;;7.09;92.93
9855;BME280;4966;48.112;9.282;2023-03-14T13:48:49;93383.53;;;7.12;90.17
9855;BME280;4966;48.112;9.282;2023-03-14T13:51:18;93375.84;;;7.14;89.23
9855;BME280;4966;48.112;9.282;2023-03-14T13:53:49;93372.94;;;7.70;87.24
9855;BME280;4966;48.112;9.282;2023-03-14T13:56:15;93384.13;;;8.04;84.88
9855;BME280;4966;48.112;9.282;2023-03-14T13:58:42;93394.53;;;8.02;83.32
9855;BME280;4966;48.112;9.282;2023-03-14T14:03:41;93411.25;;;8.78;78.80
9855;BME280;4966;48.112;9.282;2023-03-14T14:08:51;93426.28;;;8.37;70.59
9855;BME280;4966;48.112;9.282;2023-03-14T14:11:38;93430.72;;;8.45;69.02
9855;BME280;4966;48.112;9.282;2023-03-14T14:14:10;93448.50;;;8.62;68.23
9855;BME280;4966;48.112;9.282;2023-03-14T14:16:36;93451.53;;;8.96;65.29
9855;BME280;4966;48.112;9.282;2023-03-14T14:19:02;93442.59;;;8.56;66.31
9855;BME280;4966;48.112;9.282;2023-03-14T14:21:28;93450.88;;;8.63;66.82